Terminal Aerodrome Forecast
Issued by NWS

Home | Current Version | Previous Version | Text Only | Print | Product List | Glossary On
Versions: 1 2 3 4 5 6 7 8 9 10 11 12 13
000
FTUS45 KRIW 190500
TAFRKS
TAF
KRKS 190527Z 1906/2006 30011KT P6SM BKN100
      TEMPO 1906/1908 30015G25KT
     FM191000 VRB05KT P6SM BKN090
     FM192000 24011KT P6SM SCT100 BKN150
     FM200200 22007KT P6SM SCT120=

USA.gov is the U.S. government's official web portal to all federal, state and local government web resources and services.